Time;durP1;ratioP1;P1;durP2;ratioP2;P2;SDS_P1;SDS_P2;PMS_P1;PMS_P2;Temp;Humidity;BMP_temperature;BMP_pressure;BME280_temperature;BME280_humidity;BME280_pressure;Samples;Min_cycle;Max_cycle;Signal;HPM_P1;HPM_P2
2022/03/05 00:01:35;;;;;;;14.82;13.13;;;6.40;98.50;;;;;;5052947;28;20107;-49
2022/03/05 00:04:02;;;;;;;13.20;11.80;;;6.40;98.40;;;;;;5052764;28;20472;-52
2022/03/05 00:06:29;;;;;;;13.07;11.65;;;6.30;98.60;;;;;;5051661;28;20394;-47
2022/03/05 00:08:56;;;;;;;13.63;12.23;;;6.30;98.40;;;;;;5033395;28;20114;-52
2022/03/05 00:11:23;;;;;;;15.43;13.63;;;6.30;98.80;;;;;;5034678;28;20041;-49
2022/03/05 00:13:50;;;;;;;14.48;12.98;;;6.30;98.90;;;;;;5032328;28;20056;-52
2022/03/05 00:16:16;;;;;;;14.95;13.43;;;6.20;99.00;;;;;;5033781;28;20390;-49
2022/03/05 00:18:43;;;;;;;14.35;12.80;;;6.20;98.90;;;;;;5033576;28;20044;-52
2022/03/05 00:21:11;;;;;;;14.10;12.68;;;6.20;99.10;;;;;;5040892;28;20056;-51
2022/03/05 00:23:38;;;;;;;13.40;12.00;;;6.20;99.10;;;;;;5045136;28;20392;-49
2022/03/05 00:26:05;;;;;;;15.98;14.38;;;6.20;99.50;;;;;;5034310;28;20370;-48
2022/03/05 00:28:31;;;;;;;16.10;14.40;;;6.10;99.40;;;;;;5052489;28;20033;-46
2022/03/05 00:31:00;;;;;;;15.55;13.95;;;6.10;99.50;;;;;;5052437;28;20047;-48
2022/03/05 00:33:27;;;;;;;16.77;14.57;;;6.10;99.70;;;;;;5052458;28;20046;-47
2022/03/05 00:35:54;;;;;;;17.73;15.88;;;6.10;99.80;;;;;;5037554;28;20049;-46
2022/03/05 00:38:21;;;;;;;17.55;15.20;;;6.10;99.90;;;;;;5033261;28;20393;-48
2022/03/05 00:40:47;;;;;;;16.40;14.65;;;6.10;99.90;;;;;;5032891;28;20058;-51
2022/03/05 00:43:14;;;;;;;17.15;15.35;;;6.10;99.90;;;;;;5033143;28;20049;-46
2022/03/05 00:45:41;;;;;;;17.02;14.95;;;6.10;99.80;;;;;;5033854;28;20045;-46
2022/03/05 00:48:08;;;;;;;19.23;16.83;;;6.10;99.90;;;;;;5052244;28;20514;-47
2022/03/05 00:50:35;;;;;;;18.88;16.88;;;6.20;99.90;;;;;;5052242;28;20037;-44
2022/03/05 00:53:01;;;;;;;19.10;16.63;;;6.20;99.90;;;;;;5046491;28;20037;-50
2022/03/05 00:55:28;;;;;;;18.23;16.30;;;6.20;99.90;;;;;;5051512;28;20049;-46
2022/03/05 00:57:55;;;;;;;19.10;17.08;;;6.20;99.90;;;;;;5052406;28;20052;-46
2022/03/05 01:00:22;;;;;;;19.88;17.58;;;6.20;99.90;;;;;;5052201;28;20049;-48
2022/03/05 01:02:49;;;;;;;19.48;17.13;;;6.20;99.90;;;;;;5052223;28;20091;-54
2022/03/05 01:05:16;;;;;;;20.38;17.00;;;6.20;99.90;;;;;;5051986;28;20049;-53
2022/03/05 01:07:43;;;;;;;15.60;13.95;;;6.10;99.90;;;;;;5052125;28;20037;-44
2022/03/05 01:10:10;;;;;;;15.18;13.57;;;6.10;99.80;;;;;;5052113;28;20484;-51
2022/03/05 01:12:36;;;;;;;18.88;15.95;;;6.10;99.90;;;;;;5052182;28;20514;-52
2022/03/05 01:15:03;;;;;;;17.20;15.40;;;6.10;99.90;;;;;;5052243;28;20067;-53
2022/03/05 01:17:30;;;;;;;17.75;15.90;;;6.10;99.90;;;;;;5052197;28;20033;-45
2022/03/05 01:19:57;;;;;;;18.50;16.55;;;6.10;99.90;;;;;;5050846;28;20036;-45
2022/03/05 01:22:24;;;;;;;16.48;14.73;;;6.10;99.90;;;;;;5054379;28;20392;-51
2022/03/05 01:24:50;;;;;;;17.00;15.15;;;6.10;99.90;;;;;;5036695;28;20116;-47
2022/03/05 01:27:18;;;;;;;18.30;15.85;;;6.00;99.90;;;;;;5036752;28;20401;-44
2022/03/05 01:29:45;;;;;;;16.33;14.38;;;6.00;99.90;;;;;;5036628;28;20038;-52
2022/03/05 01:32:11;;;;;;;16.23;13.77;;;6.10;99.90;;;;;;5036715;28;20038;-50
2022/03/05 01:34:38;;;;;;;14.93;13.32;;;6.00;99.90;;;;;;5036284;28;20120;-46
2022/03/05 01:37:06;;;;;;;16.42;14.40;;;6.00;99.90;;;;;;5036652;28;20536;-49
2022/03/05 01:39:32;;;;;;;16.48;14.63;;;5.90;99.90;;;;;;5036278;28;20463;-50
2022/03/05 01:42:01;;;;;;;16.00;14.27;;;6.00;99.90;;;;;;5036702;28;20515;-48
2022/03/05 01:44:27;;;;;;;15.07;13.55;;;6.00;99.90;;;;;;5036324;28;20041;-47
2022/03/05 01:46:54;;;;;;;14.77;13.20;;;5.90;99.90;;;;;;5036448;28;20167;-45
2022/03/05 01:49:21;;;;;;;14.52;12.82;;;5.90;99.90;;;;;;5036455;28;20041;-47
2022/03/05 01:51:48;;;;;;;13.05;11.57;;;5.90;99.90;;;;;;5038512;28;20037;-44
2022/03/05 08:53:30;;;;;;;9.45;6.60;;;5.40;99.90;;;;;;5108282;27;20509;-49
2022/03/05 08:55:57;;;;;;;10.00;6.60;;;5.50;99.90;;;;;;5098776;28;20116;-46
2022/03/05 08:58:24;;;;;;;9.13;5.50;;;5.50;99.90;;;;;;5090606;28;20048;-50
2022/03/05 09:00:51;;;;;;;13.77;5.53;;;5.60;99.70;;;;;;5092434;28;20040;-53
2022/03/05 09:03:18;;;;;;;12.90;5.35;;;5.60;99.80;;;;;;5091449;28;20106;-47
2022/03/05 09:05:46;;;;;;;9.55;5.38;;;5.70;99.60;;;;;;5094527;28;20072;-47
2022/03/05 09:08:13;;;;;;;6.90;4.47;;;5.70;99.60;;;;;;5093792;28;20036;-54
2022/03/05 09:10:39;;;;;;;7.25;4.65;;;5.80;99.40;;;;;;5109124;28;20115;-53
2022/03/05 09:13:07;;;;;;;9.13;4.75;;;5.80;99.30;;;;;;5109601;28;20040;-46
2022/03/05 09:15:34;;;;;;;5.50;4.07;;;5.80;99.20;;;;;;5109690;28;20036;-47
2022/03/05 09:18:01;;;;;;;7.57;4.72;;;5.80;99.30;;;;;;5109071;28;20054;-52
2022/03/05 09:20:27;;;;;;;6.28;4.72;;;5.90;99.40;;;;;;5109716;28;20047;-47
2022/03/05 09:22:55;;;;;;;7.30;4.88;;;5.90;99.50;;;;;;5109529;28;20044;-54
2022/03/05 09:25:22;;;;;;;6.43;4.75;;;5.90;99.20;;;;;;5109468;28;20040;-49
2022/03/05 09:27:52;;;;;;;14.13;6.82;;;5.90;99.40;;;;;;5093783;28;20050;-48
2022/03/05 09:30:19;;;;;;;11.30;7.18;;;5.90;98.70;;;;;;5089822;28;20039;-50
2022/03/05 09:32:46;;;;;;;10.07;4.80;;;6.00;98.80;;;;;;5089782;28;20067;-47
2022/03/05 09:35:13;;;;;;;6.88;4.55;;;6.00;98.90;;;;;;5105015;28;20046;-51
2022/03/05 09:37:40;;;;;;;10.15;5.13;;;6.00;98.80;;;;;;5109328;28;20045;-46
2022/03/05 09:40:10;;;;;;;14.50;7.13;;;6.00;98.60;;;;;;5109485;28;20446;-53
2022/03/05 09:42:36;;;;;;;17.23;7.50;;;6.00;98.60;;;;;;5107866;28;20040;-52
2022/03/05 09:45:03;;;;;;;16.38;8.30;;;6.00;98.60;;;;;;5109079;28;20046;-48
2022/03/05 09:47:30;;;;;;;15.05;7.47;;;6.10;98.60;;;;;;5109264;28;20040;-50
2022/03/05 09:49:58;;;;;;;5.32;3.30;;;6.10;98.50;;;;;;5108544;28;20074;-53
2022/03/05 09:52:25;;;;;;;11.10;4.90;;;6.10;98.30;;;;;;5108899;28;20055;-55
2022/03/05 09:54:52;;;;;;;9.88;3.95;;;6.20;98.50;;;;;;5108923;28;20036;-51
2022/03/05 09:57:18;;;;;;;6.82;3.58;;;6.20;98.20;;;;;;5108761;28;20581;-54
2022/03/05 09:59:45;;;;;;;7.78;4.07;;;6.20;98.30;;;;;;5108157;28;20044;-49
2022/03/05 10:02:12;;;;;;;4.80;3.50;;;6.20;98.00;;;;;;5108925;28;20112;-49
2022/03/05 10:04:41;;;;;;;5.25;3.40;;;6.20;98.10;;;;;;5095388;28;20101;-50
2022/03/05 10:07:07;;;;;;;6.00;3.50;;;6.20;97.90;;;;;;5095400;28;20044;-47
2022/03/05 10:09:34;;;;;;;5.10;3.70;;;6.20;98.20;;;;;;5094482;28;20039;-47
2022/03/05 10:12:01;;;;;;;7.03;3.92;;;6.20;98.40;;;;;;5095092;28;20036;-53
2022/03/05 10:14:28;;;;;;;6.43;3.88;;;6.20;98.20;;;;;;5094375;28;20059;-49
2022/03/05 10:16:59;;;;;;;6.68;3.80;;;6.20;98.10;;;;;;5095118;28;20036;-48
2022/03/05 10:19:25;;;;;;;6.32;4.25;;;6.20;98.60;;;;;;5095082;28;20063;-44
2022/03/05 10:21:52;;;;;;;8.35;5.13;;;6.20;98.70;;;;;;5094218;28;20440;-48
2022/03/05 10:24:19;;;;;;;8.75;4.40;;;6.20;98.80;;;;;;5094671;28;20040;-50
2022/03/05 10:26:54;;;;;;;5.45;4.25;;;6.20;98.50;;;;;;5094849;28;20040;-49
2022/03/05 10:29:21;;;;;;;6.15;4.13;;;6.20;98.50;;;;;;5093619;28;20040;-50
2022/03/05 10:31:48;;;;;;;5.55;3.95;;;6.20;98.50;;;;;;5094691;28;20123;-49
2022/03/05 10:34:15;;;;;;;10.68;3.92;;;6.20;98.60;;;;;;5094613;28;20044;-50
2022/03/05 10:36:42;;;;;;;9.77;5.18;;;6.10;98.50;;;;;;5086029;28;20075;-46
2022/03/05 10:39:09;;;;;;;7.97;4.22;;;6.10;98.80;;;;;;5075056;28;20033;-44
2022/03/05 10:41:36;;;;;;;5.30;4.50;;;6.20;98.70;;;;;;5075166;28;20399;-50
2022/03/05 10:44:03;;;;;;;6.80;4.57;;;6.20;98.90;;;;;;5076614;28;20047;-50
2022/03/05 10:46:30;;;;;;;8.95;4.90;;;6.10;98.90;;;;;;5094406;28;20501;-51
2022/03/05 10:48:57;;;;;;;11.55;5.22;;;6.10;99.00;;;;;;5094541;28;20399;-47
2022/03/05 10:51:24;;;;;;;6.18;3.92;;;6.20;99.00;;;;;;5094130;28;20050;-46
2022/03/05 10:53:50;;;;;;;7.57;4.18;;;6.20;98.70;;;;;;5087085;28;20051;-47
2022/03/05 10:56:17;;;;;;;9.00;4.55;;;6.20;98.60;;;;;;5094290;28;20040;-48
2022/03/05 10:58:44;;;;;;;7.60;4.20;;;6.20;98.90;;;;;;5094156;28;20040;-48
2022/03/05 11:01:11;;;;;;;6.07;4.13;;;6.20;98.80;;;;;;5094484;28;20044;-51
2022/03/05 11:03:38;;;;;;;8.77;3.40;;;6.20;99.00;;;;;;5094242;28;20214;-53
2022/03/05 11:06:05;;;;;;;6.55;3.80;;;6.10;98.50;;;;;;5094241;28;20123;-48
2022/03/05 11:08:32;;;;;;;5.78;4.30;;;6.10;98.60;;;;;;5094206;28;20043;-48
2022/03/05 11:10:58;;;;;;;11.07;4.18;;;6.20;98.70;;;;;;5094365;28;20032;-47
2022/03/05 11:13:25;;;;;;;9.48;5.13;;;6.20;98.50;;;;;;5094245;28;20040;-47
2022/03/05 11:15:52;;;;;;;6.85;4.72;;;6.20;98.40;;;;;;5093337;28;20036;-48
2022/03/05 11:18:19;;;;;;;7.35;4.20;;;6.20;98.20;;;;;;5081390;28;20497;-48
2022/03/05 11:20:47;;;;;;;6.03;3.35;;;6.20;98.00;;;;;;5090543;28;20038;-50
2022/03/05 11:23:14;;;;;;;6.10;3.30;;;6.20;98.30;;;;;;5074683;28;20371;-52
2022/03/05 11:25:40;;;;;;;12.15;5.93;;;6.20;98.10;;;;;;5083841;28;20040;-54
2022/03/05 11:28:12;;;;;;;9.07;4.90;;;6.20;98.40;;;;;;5094013;28;20040;-54
2022/03/05 11:30:39;;;;;;;13.73;5.95;;;6.20;98.30;;;;;;5094036;28;20062;-55
2022/03/05 11:33:05;;;;;;;23.85;11.38;;;6.20;98.50;;;;;;5073992;28;20041;-55
2022/03/05 11:35:32;;;;;;;26.88;12.38;;;6.30;98.30;;;;;;5080501;28;20046;-55
2022/03/05 11:37:59;;;;;;;25.92;13.57;;;6.30;98.70;;;;;;5093151;28;20047;-52
2022/03/05 11:40:26;;;;;;;17.73;8.48;;;6.40;98.60;;;;;;5093395;28;20043;-51
2022/03/05 11:42:52;;;;;;;10.55;6.85;;;6.40;98.40;;;;;;5093781;28;20036;-46
2022/03/05 11:45:19;;;;;;;9.02;4.15;;;6.40;98.40;;;;;;5093223;28;20040;-55
2022/03/05 11:47:46;;;;;;;5.45;3.95;;;6.50;98.10;;;;;;5092724;28;20048;-46
2022/03/05 11:50:13;;;;;;;6.28;3.75;;;6.50;98.40;;;;;;5093087;28;20040;-50
2022/03/05 11:52:41;;;;;;;7.85;3.58;;;6.50;98.50;;;;;;5092888;28;20055;-49
2022/03/05 11:55:07;;;;;;;7.60;3.47;;;6.50;98.30;;;;;;5092329;28;20051;-46
2022/03/05 11:57:34;;;;;;;4.97;3.33;;;6.50;98.40;;;;;;5092877;28;20073;-48
2022/03/05 12:00:03;;;;;;;10.55;3.60;;;6.50;98.30;;;;;;5093245;28;20044;-51
2022/03/05 12:02:38;;;;;;;7.00;2.90;;;6.50;98.20;;;;;;5080430;28;20060;-49
2022/03/05 12:05:05;;;;;;;6.00;3.10;;;6.40;98.40;;;;;;5073489;28;20463;-47
2022/03/05 12:07:31;;;;;;;4.43;2.90;;;6.40;98.40;;;;;;5079830;28;20090;-49
2022/03/05 12:10:02;;;;;;;4.40;2.85;;;6.50;98.40;;;;;;5073447;28;20047;-47
2022/03/05 12:12:29;;;;;;;6.07;3.05;;;6.40;98.20;;;;;;5086899;28;20072;-46
2022/03/05 12:14:56;;;;;;;3.88;2.90;;;6.40;98.40;;;;;;5092892;28;20040;-49
2022/03/05 12:17:23;;;;;;;5.28;2.58;;;6.40;98.30;;;;;;5093067;28;20035;-51
2022/03/05 12:19:50;;;;;;;9.52;3.22;;;6.40;98.10;;;;;;5073888;28;20062;-49
2022/03/05 12:22:17;;;;;;;7.80;2.97;;;6.40;98.30;;;;;;5073460;28;20051;-52
2022/03/05 12:24:43;;;;;;;3.78;2.90;;;6.50;98.20;;;;;;5088310;28;20042;-51
2022/03/05 12:27:10;;;;;;;5.47;3.00;;;6.50;98.20;;;;;;5073421;28;20476;-48
2022/03/05 12:29:37;;;;;;;6.95;3.20;;;6.50;98.20;;;;;;5072753;28;20045;-51
2022/03/05 12:32:04;;;;;;;7.57;3.17;;;6.50;98.20;;;;;;5072982;28;20044;-48
2022/03/05 12:34:30;;;;;;;5.22;3.65;;;6.50;98.50;;;;;;5072984;28;20131;-48
2022/03/05 12:36:57;;;;;;;5.65;3.83;;;6.50;99.00;;;;;;5072987;28;20039;-54
2022/03/05 12:39:24;;;;;;;6.28;3.92;;;6.50;99.30;;;;;;5072801;28;20055;-46
2022/03/05 12:41:51;;;;;;;4.35;3.70;;;6.40;99.90;;;;;;5072940;28;20039;-48
2022/03/05 12:44:18;;;;;;;4.88;3.85;;;6.40;99.80;;;;;;5072804;28;20348;-46
2022/03/05 12:46:45;;;;;;;5.95;3.95;;;6.50;99.90;;;;;;5072914;28;20071;-55
2022/03/05 12:49:11;;;;;;;4.20;3.33;;;6.40;99.90;;;;;;5072897;28;20063;-49
2022/03/05 12:51:39;;;;;;;5.22;4.05;;;6.40;99.90;;;;;;5078098;28;20072;-52
2022/03/05 12:54:05;;;;;;;8.90;4.40;;;6.40;99.90;;;;;;5091779;28;20039;-53
2022/03/05 12:56:33;;;;;;;4.70;4.07;;;6.40;99.90;;;;;;5092454;28;20032;-45
2022/03/05 12:59:00;;;;;;;7.55;3.83;;;6.50;99.90;;;;;;5092339;28;20489;-47
2022/03/05 13:01:27;;;;;;;5.70;4.05;;;6.50;99.90;;;;;;5092666;28;20032;-50
2022/03/05 13:03:54;;;;;;;5.22;3.88;;;6.50;99.90;;;;;;5092493;28;20135;-50
2022/03/05 13:06:21;;;;;;;4.20;3.40;;;6.50;99.90;;;;;;5092605;28;20074;-47
2022/03/05 13:08:48;;;;;;;4.80;3.35;;;6.60;99.50;;;;;;5092502;28;20040;-50
2022/03/05 13:11:15;;;;;;;6.05;3.20;;;6.60;99.10;;;;;;5092395;28;20040;-48
2022/03/05 13:13:41;;;;;;;3.50;2.22;;;6.70;98.80;;;;;;5092476;28;20040;-46
2022/03/05 13:16:08;;;;;;;6.80;2.97;;;6.80;98.60;;;;;;5092504;28;20060;-50
2022/03/05 13:18:35;;;;;;;3.63;2.40;;;6.80;98.60;;;;;;5092941;28;20356;-47
2022/03/05 13:21:02;;;;;;;5.28;2.03;;;6.80;98.20;;;;;;5092190;28;20071;-55
2022/03/05 13:23:30;;;;;;;3.65;1.60;;;6.80;98.00;;;;;;5092317;28;20519;-45
2022/03/05 13:25:56;;;;;;;5.85;1.70;;;6.80;97.90;;;;;;5092341;28;20040;-48
2022/03/05 13:28:23;;;;;;;4.65;1.65;;;6.80;97.90;;;;;;5092334;28;20044;-50
2022/03/05 13:30:50;;;;;;;5.57;1.33;;;6.80;97.90;;;;;;5092216;28;20048;-52
2022/03/05 13:33:17;;;;;;;4.82;1.60;;;6.70;97.60;;;;;;5092431;28;20041;-51
2022/03/05 13:35:44;;;;;;;4.65;1.20;;;6.60;98.10;;;;;;5090602;28;20036;-51
2022/03/05 13:38:11;;;;;;;5.03;1.40;;;6.60;97.90;;;;;;5092716;28;20058;-54
2022/03/05 13:40:37;;;;;;;5.75;1.40;;;6.60;97.90;;;;;;5096001;28;20036;-45
2022/03/05 13:43:04;;;;;;;6.43;1.38;;;6.60;97.20;;;;;;5096103;28;20051;-52
2022/03/05 13:45:31;;;;;;;7.55;1.52;;;6.60;97.30;;;;;;5095367;28;20054;-47
2022/03/05 13:47:58;;;;;;;7.47;1.35;;;6.60;97.20;;;;;;5095957;28;20036;-47
2022/03/05 13:50:25;;;;;;;8.38;1.42;;;6.70;96.90;;;;;;5079295;28;20076;-49
2022/03/05 13:52:51;;;;;;;7.03;2.10;;;6.60;96.60;;;;;;5076023;28;20565;-50
2022/03/05 13:55:18;;;;;;;6.50;1.40;;;6.70;96.80;;;;;;5091195;28;20368;-52
2022/03/05 13:57:45;;;;;;;6.30;1.33;;;6.70;96.70;;;;;;5076292;28;20043;-53
2022/03/05 14:00:12;;;;;;;8.60;2.10;;;6.70;96.60;;;;;;5075205;28;20487;-48
2022/03/05 14:02:39;;;;;;;8.48;2.13;;;6.70;96.20;;;;;;5076085;28;20047;-48
2022/03/05 14:05:05;;;;;;;8.20;2.42;;;6.70;96.50;;;;;;5090547;28;20040;-52
2022/03/05 14:07:32;;;;;;;8.77;2.30;;;6.80;96.50;;;;;;5095512;28;20040;-55
2022/03/05 14:09:59;;;;;;;15.32;4.65;;;6.80;96.30;;;;;;5095529;28;20036;-51
2022/03/05 14:12:26;;;;;;;8.90;3.20;;;6.90;96.40;;;;;;5095565;28;20089;-50
2022/03/05 14:14:55;;;;;;;5.45;2.20;;;6.90;96.20;;;;;;5095618;28;20036;-51
2022/03/05 14:17:23;;;;;;;9.00;2.50;;;7.00;95.90;;;;;;5095444;28;20044;-47
2022/03/05 14:19:50;;;;;;;9.15;1.60;;;7.10;96.20;;;;;;5095287;28;20051;-52
2022/03/05 14:22:17;;;;;;;6.65;1.50;;;7.10;95.50;;;;;;5095235;28;20391;-54
2022/03/05 14:24:44;;;;;;;10.50;1.83;;;7.10;95.70;;;;;;5095291;28;20491;-51
2022/03/05 14:27:11;;;;;;;5.43;1.33;;;7.10;95.40;;;;;;5095255;28;20040;-52
2022/03/05 14:29:37;;;;;;;5.80;1.48;;;7.10;95.20;;;;;;5095172;28;20043;-50
2022/03/05 14:32:04;;;;;;;10.65;1.10;;;7.10;95.00;;;;;;5095326;28;20051;-53
2022/03/05 14:34:31;;;;;;;7.97;1.50;;;7.10;95.10;;;;;;5095245;28;20044;-53
2022/03/05 14:36:58;;;;;;;5.47;1.25;;;7.20;95.20;;;;;;5094985;28;20491;-56
2022/03/05 14:39:28;;;;;;;5.30;1.25;;;7.20;94.60;;;;;;5095039;28;20040;-57
2022/03/05 14:41:55;;;;;;;5.03;1.10;;;7.20;94.20;;;;;;5094979;28;20044;-53
2022/03/05 14:44:22;;;;;;;5.28;0.98;;;7.20;94.30;;;;;;5095002;28;20047;-53
2022/03/05 14:46:51;;;;;;;3.97;1.13;;;7.20;94.60;;;;;;5093840;28;20047;-49
2022/03/05 14:49:19;;;;;;;4.13;1.20;;;7.30;94.60;;;;;;5094513;28;20036;-50
2022/03/05 14:51:47;;;;;;;7.00;1.92;;;7.20;94.70;;;;;;5094633;28;20044;-48
2022/03/05 14:54:14;;;;;;;4.95;1.30;;;7.20;94.90;;;;;;5094180;28;20040;-52
2022/03/05 14:56:41;;;;;;;4.90;1.45;;;7.20;95.20;;;;;;5094793;28;20398;-47
2022/03/05 14:59:07;;;;;;;9.18;1.75;;;7.10;95.30;;;;;;5094599;28;20036;-46
2022/03/05 15:01:34;;;;;;;7.30;2.00;;;7.10;95.00;;;;;;5094627;28;20398;-47
2022/03/05 15:04:01;;;;;;;5.00;1.73;;;7.10;95.20;;;;;;5093847;28;20044;-53
2022/03/05 15:06:28;;;;;;;6.90;1.85;;;7.10;95.00;;;;;;5085715;28;20498;-52
2022/03/05 15:08:55;;;;;;;9.18;2.10;;;7.10;95.00;;;;;;5074759;28;20499;-52
2022/03/05 15:11:21;;;;;;;9.10;1.60;;;7.10;95.10;;;;;;5074833;28;20048;-53
2022/03/05 15:13:48;;;;;;;8.10;1.77;;;7.10;95.00;;;;;;5074509;28;20387;-46
2022/03/05 15:16:15;;;;;;;7.38;1.50;;;7.10;95.20;;;;;;5073172;28;20514;-54
2022/03/05 15:18:42;;;;;;;6.95;1.73;;;7.10;95.10;;;;;;5074580;28;20036;-47
2022/03/05 15:21:09;;;;;;;9.38;2.70;;;7.10;95.40;;;;;;5074450;28;20047;-50
2022/03/05 15:23:35;;;;;;;9.40;1.83;;;7.10;96.00;;;;;;5084553;28;20064;-52
2022/03/05 15:26:02;;;;;;;5.55;1.77;;;7.10;95.50;;;;;;5093729;28;20040;-51
2022/03/05 15:28:31;;;;;;;8.88;2.00;;;7.10;95.70;;;;;;5093736;28;20040;-48
2022/03/05 15:30:58;;;;;;;6.68;1.65;;;7.10;95.50;;;;;;5092137;28;20040;-50
2022/03/05 15:33:24;;;;;;;7.43;1.83;;;7.10;95.70;;;;;;5093541;28;20044;-48
2022/03/05 15:35:51;;;;;;;16.65;4.70;;;7.10;95.40;;;;;;5093555;28;20572;-49
2022/03/05 15:38:22;;;;;;;22.55;7.35;;;7.10;95.60;;;;;;5093586;28;20036;-52
2022/03/05 15:40:48;;;;;;;8.27;2.95;;;7.10;95.70;;;;;;5093258;28;20123;-48
2022/03/05 15:43:17;;;;;;;7.85;2.47;;;7.10;95.80;;;;;;5093269;28;20472;-47
2022/03/05 15:45:44;;;;;;;7.43;1.77;;;7.10;95.90;;;;;;5093158;28;20043;-49
2022/03/05 15:48:11;;;;;;;5.82;1.05;;;7.00;96.20;;;;;;5093396;28;20044;-49
2022/03/05 15:50:38;;;;;;;7.05;2.03;;;6.90;96.00;;;;;;5093127;28;20391;-51
2022/03/05 15:53:05;;;;;;;4.68;1.55;;;6.90;96.30;;;;;;5092918;28;20056;-46
2022/03/05 15:55:31;;;;;;;5.97;1.83;;;6.90;96.40;;;;;;5093169;28;20040;-50
2022/03/05 15:57:58;;;;;;;4.20;0.90;;;6.80;96.50;;;;;;5092748;28;20059;-51
2022/03/05 16:00:25;;;;;;;5.38;1.38;;;6.70;96.60;;;;;;5092983;28;20044;-51
2022/03/05 16:02:52;;;;;;;4.85;1.20;;;6.70;96.90;;;;;;5092502;28;20032;-48
2022/03/05 16:05:19;;;;;;;4.18;1.38;;;6.70;96.90;;;;;;5092880;28;20043;-51
2022/03/05 16:07:46;;;;;;;4.22;1.45;;;6.70;96.80;;;;;;5093393;28;20051;-48
2022/03/05 16:10:12;;;;;;;7.25;1.77;;;6.70;97.00;;;;;;5093271;28;20444;-47
2022/03/05 16:12:39;;;;;;;8.07;2.30;;;6.70;96.80;;;;;;5091780;28;20133;-45
2022/03/05 16:15:06;;;;;;;6.60;2.33;;;6.70;96.70;;;;;;5093005;28;20040;-46
2022/03/05 16:17:33;;;;;;;5.82;2.70;;;6.70;96.60;;;;;;5093161;28;20483;-47
2022/03/05 16:20:00;;;;;;;6.43;2.67;;;6.70;96.50;;;;;;5080417;28;20448;-48
2022/03/05 16:22:26;;;;;;;4.43;2.25;;;6.70;96.80;;;;;;5072526;28;20403;-48
2022/03/05 16:24:53;;;;;;;8.10;4.40;;;6.70;96.70;;;;;;5072348;28;20044;-50
2022/03/05 16:27:20;;;;;;;5.45;2.33;;;6.70;96.50;;;;;;5073607;28;20095;-47
2022/03/05 16:29:47;;;;;;;6.93;3.80;;;6.70;96.40;;;;;;5080159;28;20108;-48
2022/03/05 16:32:15;;;;;;;11.02;3.30;;;6.60;96.60;;;;;;5073322;28;20046;-48
2022/03/05 16:34:41;;;;;;;4.15;1.73;;;6.70;96.50;;;;;;5073245;28;20041;-46
2022/03/05 16:37:08;;;;;;;4.18;1.50;;;6.70;96.40;;;;;;5081526;28;20037;-53
2022/03/05 16:39:35;;;;;;;4.88;1.65;;;6.60;96.20;;;;;;5072847;28;20062;-50
2022/03/05 16:42:02;;;;;;;4.90;1.88;;;6.60;96.60;;;;;;5073079;28;20033;-51
2022/03/05 16:44:29;;;;;;;4.50;1.55;;;6.60;96.40;;;;;;5080142;28;20044;-53
2022/03/05 16:46:56;;;;;;;6.97;1.67;;;6.60;96.40;;;;;;5073138;28;20407;-50
2022/03/05 16:49:22;;;;;;;7.25;1.60;;;6.60;96.50;;;;;;5073082;28;20048;-52
2022/03/05 16:51:49;;;;;;;5.80;1.70;;;6.60;96.20;;;;;;5072950;28;20530;-50
2022/03/05 16:54:16;;;;;;;6.72;1.63;;;6.50;96.50;;;;;;5086951;28;20045;-55
2022/03/05 16:56:44;;;;;;;6.10;1.55;;;6.50;96.50;;;;;;5092683;28;20051;-52
2022/03/05 16:59:11;;;;;;;4.72;2.00;;;6.60;96.50;;;;;;5092661;28;20039;-48
2022/03/05 17:01:38;;;;;;;7.05;1.80;;;6.50;96.40;;;;;;5092840;28;20040;-48
2022/03/05 17:04:05;;;;;;;4.22;1.70;;;6.50;96.60;;;;;;5092667;28;20062;-46
2022/03/05 17:06:31;;;;;;;6.22;2.08;;;6.50;96.60;;;;;;5092004;28;20075;-48
2022/03/05 17:08:58;;;;;;;6.28;2.30;;;6.50;96.70;;;;;;5092299;28;20448;-51
2022/03/05 17:11:25;;;;;;;6.70;2.70;;;6.60;96.60;;;;;;5092672;28;20048;-48
2022/03/05 17:13:52;;;;;;;11.13;4.30;;;6.60;96.70;;;;;;5093944;28;20072;-47
2022/03/05 17:16:19;;;;;;;7.55;3.00;;;6.60;96.70;;;;;;5096783;28;20483;-51
2022/03/05 17:18:46;;;;;;;7.00;3.40;;;6.60;96.80;;;;;;5095661;28;20040;-51
2022/03/05 17:21:12;;;;;;;9.45;3.65;;;6.50;96.80;;;;;;5096407;28;20036;-49
2022/03/05 17:23:39;;;;;;;6.78;3.28;;;6.50;96.90;;;;;;5096487;28;20048;-49
2022/03/05 17:26:06;;;;;;;4.47;2.50;;;6.50;96.90;;;;;;5096503;28;20044;-54
2022/03/05 17:28:33;;;;;;;6.13;3.08;;;6.50;97.00;;;;;;5096358;28;20517;-52
2022/03/05 17:30:59;;;;;;;4.47;2.70;;;6.40;97.10;;;;;;5096498;28;20506;-50
2022/03/05 17:33:26;;;;;;;7.28;1.60;;;6.50;97.30;;;;;;5096305;28;20040;-52
2022/03/05 17:35:54;;;;;;;5.18;2.10;;;6.50;97.30;;;;;;5096246;28;20570;-47
2022/03/05 17:38:23;;;;;;;6.75;2.15;;;6.40;97.40;;;;;;5096348;28;20055;-48
2022/03/05 17:40:49;;;;;;;7.05;2.30;;;6.40;97.50;;;;;;5096428;28;20043;-46
2022/03/05 17:43:16;;;;;;;5.25;2.20;;;6.40;97.60;;;;;;5096245;28;20438;-51
2022/03/05 17:45:43;;;;;;;7.78;2.13;;;6.40;97.70;;;;;;5096095;28;20044;-49
2022/03/05 17:48:10;;;;;;;4.03;1.63;;;6.40;97.70;;;;;;5095711;28;20039;-46
2022/03/05 17:50:37;;;;;;;5.72;1.50;;;6.40;97.70;;;;;;5095798;28;20399;-49
2022/03/05 17:53:03;;;;;;;4.63;1.63;;;6.40;97.90;;;;;;5095849;28;20056;-48
2022/03/05 17:55:31;;;;;;;3.47;1.85;;;6.40;98.00;;;;;;5096059;28;20040;-47
2022/03/05 17:57:58;;;;;;;5.05;1.90;;;6.30;97.90;;;;;;5095121;28;20032;-49
2022/03/05 18:00:25;;;;;;;4.65;1.90;;;6.40;98.00;;;;;;5095775;28;20629;-49
2022/03/05 18:02:52;;;;;;;5.03;1.98;;;6.40;98.00;;;;;;5095780;28;20475;-49
2022/03/05 18:05:19;;;;;;;5.43;2.30;;;6.40;98.20;;;;;;5094347;28;20048;-49
2022/03/05 18:07:45;;;;;;;6.55;2.47;;;6.30;98.30;;;;;;5095655;28;20089;-53
2022/03/05 18:10:12;;;;;;;5.68;2.40;;;6.30;98.50;;;;;;5095479;28;20060;-54
2022/03/05 18:12:39;;;;;;;5.72;2.65;;;6.30;98.80;;;;;;5075933;28;20041;-48
2022/03/05 18:15:06;;;;;;;4.65;2.25;;;6.30;99.10;;;;;;5082537;28;20040;-51
2022/03/05 18:17:33;;;;;;;9.50;2.90;;;6.20;99.40;;;;;;5075774;28;20041;-51
2022/03/05 18:20:00;;;;;;;5.57;2.80;;;6.20;99.70;;;;;;5075583;28;20040;-47
2022/03/05 18:22:27;;;;;;;7.00;3.45;;;6.20;99.90;;;;;;5075666;28;20051;-48
2022/03/05 18:24:53;;;;;;;6.13;3.00;;;6.10;99.90;;;;;;5075016;28;20037;-45
2022/03/05 18:27:20;;;;;;;6.55;2.67;;;6.10;99.90;;;;;;5075337;28;20044;-49
2022/03/05 18:29:47;;;;;;;6.97;2.92;;;6.10;99.90;;;;;;5075358;28;20395;-46
2022/03/05 18:32:14;;;;;;;6.63;3.10;;;6.10;99.90;;;;;;5075270;28;20048;-49
2022/03/05 18:34:41;;;;;;;7.07;3.45;;;6.00;99.90;;;;;;5075272;28;20040;-51
2022/03/05 18:37:07;;;;;;;9.18;3.30;;;6.10;99.90;;;;;;5075236;28;20032;-47
2022/03/05 18:39:34;;;;;;;6.60;3.25;;;6.10;99.90;;;;;;5085434;28;20094;-53
2022/03/05 18:42:02;;;;;;;3.88;3.00;;;6.10;99.90;;;;;;5094511;28;20093;-51
2022/03/05 18:44:30;;;;;;;6.45;3.63;;;6.10;99.90;;;;;;5082559;28;20040;-47
2022/03/05 18:46:57;;;;;;;12.35;6.88;;;6.00;99.90;;;;;;5075441;28;20036;-50
2022/03/05 18:49:24;;;;;;;13.25;8.52;;;6.00;99.90;;;;;;5075475;28;20057;-52
2022/03/05 18:51:50;;;;;;;13.70;9.77;;;6.00;99.90;;;;;;5075221;28;20375;-53
2022/03/05 18:54:17;;;;;;;16.55;10.50;;;6.00;99.90;;;;;;5091378;28;20093;-53
2022/03/05 18:56:44;;;;;;;19.63;12.48;;;6.00;99.90;;;;;;5094735;28;20037;-49
2022/03/05 18:59:11;;;;;;;20.80;13.65;;;6.00;99.90;;;;;;5094673;28;20046;-49
2022/03/05 19:01:39;;;;;;;32.28;24.55;;;6.00;99.90;;;;;;5094631;28;20482;-51
2022/03/05 19:04:06;;;;;;;37.72;24.35;;;6.00;98.90;;;;;;5094123;28;20502;-49
2022/03/05 19:06:34;;;;;;;36.72;26.33;;;6.00;98.90;;;;;;5093689;28;20064;-53
2022/03/05 19:09:00;;;;;;;37.47;27.23;;;6.00;99.00;;;;;;5093501;28;20048;-46
2022/03/05 19:11:27;;;;;;;37.17;30.23;;;6.00;98.80;;;;;;5094187;28;20053;-51
2022/03/05 19:13:54;;;;;;;44.33;32.35;;;6.00;98.30;;;;;;5092810;28;20411;-52
2022/03/05 19:16:21;;;;;;;44.67;33.83;;;6.00;98.10;;;;;;5094099;28;20478;-48
2022/03/05 19:18:48;;;;;;;48.90;36.50;;;6.00;97.40;;;;;;5092840;28;20444;-47
2022/03/05 19:21:14;;;;;;;48.15;35.95;;;6.00;97.20;;;;;;5094162;28;20040;-46
2022/03/05 19:23:41;;;;;;;46.53;35.80;;;6.00;96.80;;;;;;5092381;28;20056;-45
2022/03/05 19:26:08;;;;;;;49.17;36.80;;;5.90;96.40;;;;;;5090879;28;20397;-49
2022/03/05 19:28:35;;;;;;;48.40;35.03;;;6.00;96.90;;;;;;5090427;28;20399;-46
2022/03/05 19:31:02;;;;;;;48.13;34.60;;;6.00;96.00;;;;;;5091886;28;20459;-50
2022/03/05 19:33:29;;;;;;;45.28;33.95;;;5.90;96.00;;;;;;5091925;28;20118;-53
2022/03/05 19:35:55;;;;;;;44.55;34.05;;;5.90;95.40;;;;;;5080302;28;20082;-52
2022/03/05 19:38:22;;;;;;;42.83;32.72;;;5.90;95.00;;;;;;5077791;28;20032;-50
2022/03/05 19:40:49;;;;;;;46.15;35.28;;;5.90;95.20;;;;;;5093873;28;20044;-53
2022/03/05 19:43:16;;;;;;;44.63;34.25;;;5.90;94.90;;;;;;5092399;28;20134;-49
2022/03/05 19:45:43;;;;;;;45.65;34.97;;;5.90;94.90;;;;;;5093723;28;20047;-48
2022/03/05 19:48:09;;;;;;;46.13;36.53;;;5.90;95.20;;;;;;5093661;28;20048;-53